Terminal Aerodrome Forecast
Issued by NWS San Angelo, TX

Home | Current Version | Previous Version | Text Only | Print | Product List | Glossary On
Versions: 1 2 3 4 5 6 7 8 9 10 11 12 13 14
000
FTUS44 KSJT 200500
TAFSJT
TAF
KSJT 200520Z 2006/2106 14009KT P6SM SCT250
     FM201100 VRB04KT P6SM BKN020
     FM201800 16009KT P6SM SCT020 BKN050=

USA.gov is the U.S. government's official web portal to all federal, state and local government web resources and services.